createdAt,value
2018-12-03T00:01:53.021Z,0.80
2018-12-03T00:04:22.567Z,0.57
2018-12-03T00:06:50.938Z,0.90
2018-12-03T00:10:00.545Z,0.80
2018-12-03T00:12:41.770Z,0.90
2018-12-03T00:15:22.766Z,0.60
2018-12-03T00:18:03.991Z,0.60
2018-12-03T00:20:44.879Z,0.70
2018-12-03T00:23:26.287Z,0.70
2018-12-03T00:26:07.701Z,0.60
2018-12-03T00:31:46.793Z,1.00
2018-12-03T00:34:35.300Z,0.60
2018-12-03T00:37:23.837Z,0.70
2018-12-03T00:40:12.279Z,0.90
2018-12-03T00:43:01.104Z,0.57
2018-12-03T00:45:48.886Z,0.60
2018-12-03T00:48:36.692Z,0.50
2018-12-03T00:51:25.206Z,0.50
2018-12-03T00:54:13.656Z,1.00
2018-12-03T00:57:01.429Z,0.90
2018-12-03T00:59:49.997Z,1.23
2018-12-03T01:02:26.069Z,1.20
2018-12-03T01:05:14.505Z,1.60
2018-12-03T01:08:03.042Z,3.93
2018-12-03T01:10:51.568Z,2.10
2018-12-03T01:13:40.072Z,1.20
2018-12-03T01:16:28.507Z,0.93
2018-12-03T01:19:16.318Z,1.10
2018-12-03T01:22:04.832Z,1.03
2018-12-03T01:24:53.270Z,0.80
2018-12-03T01:27:41.797Z,0.60
2018-12-03T01:33:21.167Z,0.73
2018-12-03T01:36:09.684Z,0.60
2018-12-03T01:38:58.190Z,0.70
2018-12-03T01:41:46.967Z,1.00
2018-12-03T01:44:35.746Z,0.70
2018-12-03T01:47:24.285Z,0.80
2018-12-03T01:50:12.054Z,0.73
2018-12-03T01:53:00.622Z,0.83
2018-12-03T01:55:49.357Z,0.80
2018-12-03T01:58:37.839Z,1.10
2018-12-03T02:01:26.287Z,1.17
2018-12-03T02:04:14.837Z,1.63
2018-12-03T02:09:59.026Z,1.30
2018-12-03T02:15:43.442Z,2.07
2018-12-03T02:18:31.456Z,1.43
2018-12-03T02:21:20.175Z,1.23
2018-12-03T02:24:08.651Z,0.80
2018-12-03T02:26:57.101Z,0.60
2018-12-03T02:29:45.626Z,0.60
2018-12-03T02:32:34.178Z,0.50
2018-12-03T02:35:22.639Z,0.50
2018-12-03T02:38:11.083Z,0.60
2018-12-03T02:40:59.526Z,0.50
2018-12-03T02:43:28.995Z,0.57
2018-12-03T02:49:26.557Z,0.40
2018-12-03T02:52:15.028Z,0.50
2018-12-03T02:58:13.009Z,0.40
2018-12-03T03:01:01.748Z,0.50
2018-12-03T03:03:50.339Z,0.50
2018-12-03T03:06:38.874Z,0.50
2018-12-03T03:09:27.409Z,0.50
2018-12-03T03:12:15.855Z,0.50
2018-12-03T03:15:05.040Z,0.50
2018-12-03T03:17:52.793Z,0.40
2018-12-03T03:20:41.351Z,0.50
2018-12-03T03:23:29.790Z,0.63
2018-12-03T03:26:18.350Z,0.60
2018-12-03T03:29:07.025Z,0.50
2018-12-03T03:31:55.553Z,0.50
2018-12-03T03:34:44.099Z,0.40
2018-12-03T03:37:32.554Z,0.40
2018-12-03T03:40:21.121Z,0.40
2018-12-03T03:43:09.582Z,0.60
2018-12-03T03:45:58.033Z,0.50
2018-12-03T03:48:46.501Z,0.50
2018-12-03T03:51:34.906Z,0.50
2018-12-03T03:54:25.447Z,0.50
2018-12-03T03:57:13.834Z,0.50
2018-12-03T04:00:02.300Z,0.50
2018-12-03T04:02:51.988Z,0.60
2018-12-03T04:05:22.383Z,0.50
2018-12-03T04:08:10.855Z,0.40
2018-12-03T04:10:59.344Z,0.57
2018-12-03T04:13:47.870Z,0.50
2018-12-03T04:16:36.417Z,0.70
2018-12-03T04:22:20.020Z,0.60
2018-12-03T04:25:09.149Z,0.93
2018-12-03T04:27:57.604Z,0.80
2018-12-03T04:30:46.085Z,0.70
2018-12-03T04:33:34.541Z,0.60
2018-12-03T04:36:23.484Z,0.77
2018-12-03T04:39:11.950Z,0.53
2018-12-03T04:42:00.423Z,1.00
2018-12-03T04:44:48.922Z,0.80
2018-12-03T04:47:37.571Z,1.30
2018-12-03T04:50:25.343Z,0.90
2018-12-03T04:53:13.215Z,0.80
2018-12-03T04:56:01.771Z,0.87
2018-12-03T04:58:50.250Z,1.03
2018-12-03T05:01:38.779Z,5.97
2018-12-03T05:04:27.401Z,1.70
2018-12-03T05:06:56.955Z,2.03
2018-12-03T05:09:45.422Z,3.57
2018-12-03T05:12:33.884Z,3.00
2018-12-03T05:15:22.349Z,2.40
2018-12-03T05:18:10.794Z,5.40
2018-12-03T05:20:59.372Z,10.67
2018-12-03T05:23:48.077Z,8.40
2018-12-03T05:26:35.887Z,4.50
2018-12-03T05:29:24.346Z,2.60
2018-12-03T05:32:05.262Z,1.40
2018-12-03T05:34:45.867Z,0.90
2018-12-03T05:37:27.306Z,0.87
2018-12-03T05:40:08.452Z,0.90
2018-12-03T05:42:49.549Z,0.50
2018-12-03T05:45:30.038Z,0.70
2018-12-03T05:48:11.358Z,0.97
2018-12-03T05:50:52.910Z,0.60
2018-12-03T05:53:34.071Z,0.50
2018-12-03T05:56:15.392Z,0.60
2018-12-03T05:58:56.472Z,0.60
2018-12-03T06:04:24.818Z,1.70
2018-12-03T06:07:13.323Z,9.80
2018-12-03T06:10:01.754Z,9.40
2018-12-03T06:12:49.713Z,12.00
2018-12-03T06:15:37.479Z,1.80
2018-12-03T06:21:35.427Z,0.60
2018-12-03T06:24:23.865Z,0.80
2018-12-03T06:30:30.921Z,0.80
2018-12-03T06:33:19.321Z,0.83
2018-12-03T06:36:07.094Z,1.20
2018-12-03T06:38:55.503Z,0.80
2018-12-03T06:41:43.947Z,0.70
2018-12-03T06:44:32.360Z,1.20
2018-12-03T06:47:20.824Z,0.50
2018-12-03T06:50:09.706Z,0.67
2018-12-03T06:52:58.133Z,0.60
2018-12-03T06:55:46.542Z,1.00
2018-12-03T06:58:34.954Z,4.37
2018-12-03T07:01:23.390Z,3.50
2018-12-03T07:04:11.806Z,2.90
2018-12-03T07:07:00.206Z,1.40
2018-12-03T07:09:48.630Z,0.80
2018-12-03T07:18:32.971Z,0.80
2018-12-03T07:21:21.379Z,0.50
2018-12-03T07:24:09.806Z,0.50
2018-12-03T07:26:58.214Z,0.50
2018-12-03T07:32:56.123Z,0.50
2018-12-03T07:35:44.564Z,5.27
2018-12-03T07:38:33.687Z,7.20
2018-12-03T07:41:23.375Z,4.60
2018-12-03T07:44:11.963Z,4.90
2018-12-03T07:47:00.458Z,5.50
2018-12-03T07:49:48.874Z,11.50
2018-12-03T07:52:37.351Z,7.67
2018-12-03T07:55:26.221Z,9.87
2018-12-03T07:58:15.691Z,11.80
2018-12-03T08:01:03.458Z,9.83
2018-12-03T08:06:51.098Z,6.87
2018-12-03T08:09:39.566Z,4.67
2018-12-03T08:12:28.250Z,2.73
2018-12-03T08:15:17.289Z,4.97
2018-12-03T08:17:48.560Z,6.57
2018-12-03T08:20:25.479Z,4.47
2018-12-03T08:22:59.810Z,1.20
2018-12-03T08:25:29.183Z,1.33
2018-12-03T08:27:58.888Z,1.50
2018-12-03T08:30:28.249Z,1.03
2018-12-03T08:32:57.660Z,0.80
2018-12-03T08:35:27.073Z,0.70
2018-12-03T08:37:56.475Z,0.60
2018-12-03T08:40:25.835Z,0.80
2018-12-03T08:42:55.995Z,0.60
2018-12-03T08:45:26.202Z,0.60
2018-12-03T08:47:55.593Z,0.70
2018-12-03T08:50:28.796Z,1.10
2018-12-03T08:52:59.190Z,0.70
2018-12-03T08:55:28.553Z,0.80
2018-12-03T08:57:58.286Z,0.97
2018-12-03T09:00:31.586Z,0.80
2018-12-03T09:03:08.850Z,0.73
2018-12-03T09:05:39.607Z,1.37
2018-12-03T09:08:10.345Z,1.13
2018-12-03T09:10:40.454Z,0.80
2018-12-03T09:13:34.736Z,1.50
2018-12-03T09:16:05.227Z,1.30
2018-12-03T09:18:39.093Z,1.13
2018-12-03T09:21:13.055Z,5.70
2018-12-03T09:23:43.530Z,3.90
2018-12-03T09:26:13.326Z,2.60
2018-12-03T09:28:42.740Z,1.20
2018-12-03T09:31:17.495Z,8.80
2018-12-03T09:33:53.122Z,4.87
2018-12-03T09:36:22.497Z,8.70
2018-12-03T09:39:02.163Z,4.53
2018-12-03T09:41:36.138Z,7.07
2018-12-03T09:44:05.512Z,2.97
2018-12-03T09:46:34.882Z,1.80
2018-12-03T09:49:04.407Z,1.30
2018-12-03T09:51:37.530Z,1.30
2018-12-03T09:54:10.914Z,1.00
2018-12-03T09:56:50.935Z,0.80
2018-12-03T09:59:22.246Z,1.10
2018-12-03T10:01:53.544Z,1.20
2018-12-03T10:04:25.517Z,1.20
2018-12-03T10:06:54.979Z,0.90
2018-12-03T10:09:24.522Z,0.87
2018-12-03T10:11:58.822Z,0.93
2018-12-03T10:14:28.274Z,1.40
2018-12-03T10:16:58.809Z,1.60
2018-12-03T10:19:28.614Z,1.57
2018-12-03T10:21:58.123Z,1.07
2018-12-03T10:24:27.621Z,2.00
2018-12-03T10:26:57.069Z,2.43
2018-12-03T10:29:26.522Z,1.50
2018-12-03T10:31:55.960Z,2.50
2018-12-03T10:34:26.766Z,1.90
2018-12-03T10:37:00.223Z,1.80
2018-12-03T10:39:39.192Z,1.70
2018-12-03T10:42:13.476Z,1.60
2018-12-03T10:44:43.287Z,1.20
2018-12-03T10:47:12.813Z,0.90
2018-12-03T10:49:42.270Z,0.83
2018-12-03T10:52:13.737Z,0.87
2018-12-03T10:54:44.120Z,1.27
2018-12-03T10:57:13.595Z,3.63
2018-12-03T10:59:49.009Z,3.20
2018-12-03T11:02:35.265Z,2.50
2018-12-03T11:05:22.168Z,2.00
2018-12-03T11:07:51.964Z,1.70
2018-12-03T11:10:21.499Z,1.50
2018-12-03T11:12:52.059Z,2.20
2018-12-03T11:15:22.934Z,1.60
2018-12-03T11:17:52.458Z,1.10
2018-12-03T11:20:22.282Z,1.37
2018-12-03T11:22:51.779Z,0.90
2018-12-03T11:25:21.103Z,1.07
2018-12-03T11:27:51.433Z,1.00
2018-12-03T11:30:20.895Z,0.80
2018-12-03T11:32:50.346Z,0.90
2018-12-03T11:35:32.001Z,1.30
2018-12-03T11:38:33.399Z,1.17
2018-12-03T11:41:02.862Z,1.00
2018-12-03T11:43:32.600Z,1.50
2018-12-03T11:46:03.119Z,2.13
2018-12-03T11:48:32.561Z,0.80
2018-12-03T11:51:02.051Z,1.67
2018-12-03T11:53:31.516Z,1.60
2018-12-03T11:56:02.044Z,1.47
2018-12-03T11:58:31.595Z,1.17
2018-12-03T12:01:01.150Z,16.03
2018-12-03T12:03:32.494Z,2.00
2018-12-03T12:06:03.051Z,16.90
2018-12-03T12:08:32.506Z,1.10
2018-12-03T12:11:01.960Z,1.67
2018-12-03T12:13:31.402Z,1.37
2018-12-03T12:16:00.999Z,14.50
2018-12-03T12:18:30.454Z,1.20
2018-12-03T12:20:59.897Z,4.40
2018-12-03T12:23:29.692Z,1.40
2018-12-03T12:25:59.155Z,1.70
2018-12-03T12:28:28.627Z,1.57
2018-12-03T12:30:58.155Z,1.50
2018-12-03T12:33:27.891Z,1.27
2018-12-03T12:35:57.344Z,1.27
2018-12-03T12:38:26.785Z,1.10
2018-12-03T12:40:56.246Z,1.57
2018-12-03T12:43:25.820Z,0.80
2018-12-03T12:45:58.413Z,0.93
2018-12-03T12:48:27.871Z,1.00
2018-12-03T12:50:57.392Z,1.70
2018-12-03T12:53:26.949Z,1.30
2018-12-03T12:55:55.731Z,2.60
2018-12-03T12:58:25.190Z,2.70
2018-12-03T13:00:55.013Z,1.60
2018-12-03T13:03:24.464Z,1.07
2018-12-03T13:05:54.266Z,1.10
2018-12-03T13:08:23.714Z,1.37
2018-12-03T13:10:54.284Z,2.17
2018-12-03T13:13:23.735Z,1.67
2018-12-03T13:15:53.157Z,1.20
2018-12-03T13:18:22.835Z,1.67
2018-12-03T13:20:52.542Z,0.90
2018-12-03T13:23:22.017Z,0.83
2018-12-03T13:25:51.379Z,0.63
2018-12-03T13:28:20.758Z,0.60
2018-12-03T13:30:50.216Z,1.07
2018-12-03T13:33:20.730Z,0.90
2018-12-03T13:35:50.127Z,0.60
2018-12-03T13:38:19.507Z,1.03
2018-12-03T13:40:48.862Z,1.17
2018-12-03T13:43:18.822Z,0.73
2018-12-03T13:45:48.216Z,0.80
2018-12-03T13:48:17.595Z,0.80
2018-12-03T13:50:46.972Z,0.77
2018-12-03T13:53:16.430Z,0.50
2018-12-03T13:55:45.828Z,0.70
2018-12-03T13:58:15.191Z,0.80
2018-12-03T14:00:44.563Z,0.80
2018-12-03T14:03:25.397Z,0.70
2018-12-03T14:06:26.880Z,0.70
2018-12-03T14:09:20.722Z,0.50
2018-12-03T14:12:08.005Z,0.73
2018-12-03T14:15:14.386Z,2.10
2018-12-03T14:18:10.546Z,7.00
2018-12-03T14:20:42.842Z,2.47
2018-12-03T14:23:14.497Z,1.53
2018-12-03T14:25:43.866Z,2.10
2018-12-03T14:28:13.243Z,3.50
2018-12-03T14:30:42.698Z,3.87
2018-12-03T14:33:12.078Z,6.97
2018-12-03T14:35:41.480Z,14.43
2018-12-03T14:38:11.177Z,4.83
2018-12-03T14:40:40.577Z,1.10
2018-12-03T14:43:10.069Z,2.43
2018-12-03T14:45:39.460Z,2.30
2018-12-03T14:48:08.985Z,1.80
2018-12-03T14:50:38.409Z,2.20
2018-12-03T14:53:07.966Z,3.50
2018-12-03T14:55:37.466Z,3.57
2018-12-03T14:58:06.880Z,1.23
2018-12-03T15:00:36.342Z,1.13
2018-12-03T15:03:05.725Z,1.37
2018-12-03T15:05:35.443Z,1.00
2018-12-03T15:08:04.826Z,1.30
2018-12-03T15:10:34.306Z,1.03
2018-12-03T15:13:03.694Z,4.87
2018-12-03T15:15:32.435Z,1.20
2018-12-03T15:18:01.892Z,1.13
2018-12-03T15:20:31.576Z,1.07
2018-12-03T15:23:00.993Z,0.93
2018-12-03T15:25:30.354Z,1.60
2018-12-03T15:27:59.738Z,2.30
2018-12-03T15:30:29.112Z,3.30
2018-12-03T15:32:58.523Z,6.10
2018-12-03T15:35:27.883Z,8.20
2018-12-03T15:37:57.291Z,6.40
2018-12-03T15:40:26.763Z,3.57
2018-12-03T15:42:56.139Z,2.80
2018-12-03T15:45:25.507Z,2.27
2018-12-03T15:47:54.887Z,1.50
2018-12-03T15:50:24.330Z,1.50
2018-12-03T15:52:53.727Z,1.13
2018-12-03T15:55:23.126Z,1.50
2018-12-03T15:57:52.536Z,1.53
2018-12-03T16:00:21.893Z,1.13
2018-12-03T16:02:51.278Z,2.80
2018-12-03T16:05:25.336Z,2.87
2018-12-03T16:07:54.797Z,2.20
2018-12-03T16:10:24.251Z,1.60
2018-12-03T16:12:53.728Z,2.10
2018-12-03T16:15:23.429Z,3.33
2018-12-03T16:17:52.877Z,2.70
2018-12-03T16:20:22.262Z,6.20
2018-12-03T16:22:51.668Z,2.50
2018-12-03T16:25:21.056Z,1.50
2018-12-03T16:27:50.450Z,1.77
2018-12-03T16:30:22.019Z,2.60
2018-12-03T16:32:51.462Z,2.70
2018-12-03T16:35:20.949Z,17.67
2018-12-03T16:37:50.321Z,9.53
2018-12-03T16:40:19.791Z,11.67
2018-12-03T16:42:49.161Z,21.90
2018-12-03T16:45:18.587Z,13.93
2018-12-03T16:47:48.047Z,3.60
2018-12-03T16:50:17.432Z,6.40
2018-12-03T16:52:46.787Z,4.70
2018-12-03T16:55:16.182Z,6.30
2018-12-03T16:57:45.599Z,4.67
2018-12-03T17:00:15.636Z,4.47
2018-12-03T17:02:45.144Z,3.67
2018-12-03T17:05:14.618Z,0.90
2018-12-03T17:07:44.034Z,0.90
2018-12-03T17:10:18.087Z,1.10
2018-12-03T17:12:48.201Z,2.23
2018-12-03T17:15:17.885Z,0.80
2018-12-03T17:17:47.279Z,2.30
2018-12-03T17:20:26.230Z,4.07
2018-12-03T17:23:20.012Z,1.70
2018-12-03T17:26:08.452Z,1.07
2018-12-03T17:28:56.845Z,1.20
2018-12-03T17:31:45.258Z,1.30
2018-12-03T17:34:33.685Z,0.90
2018-12-03T17:37:22.122Z,0.70
2018-12-03T17:40:11.027Z,1.37
2018-12-03T17:42:58.789Z,1.00
2018-12-03T17:45:47.198Z,1.40
2018-12-03T17:48:16.558Z,1.93
2018-12-03T17:50:45.992Z,1.73
2018-12-03T17:53:15.411Z,1.83
2018-12-03T17:56:03.831Z,1.53
2018-12-03T17:58:52.230Z,1.80
2018-12-03T18:01:40.010Z,1.90
2018-12-03T18:04:28.455Z,2.10
2018-12-03T18:07:16.966Z,2.00
2018-12-03T18:10:06.470Z,6.60
2018-12-03T18:12:54.879Z,5.27
2018-12-03T18:15:43.290Z,4.13
2018-12-03T18:18:31.683Z,4.10
2018-12-03T18:21:20.128Z,4.23
2018-12-03T18:24:07.906Z,4.50
2018-12-03T18:26:56.561Z,4.00
2018-12-03T18:29:44.986Z,5.20
2018-12-03T18:32:33.420Z,4.30
2018-12-03T18:35:21.858Z,4.60
2018-12-03T18:38:10.537Z,5.53
2018-12-03T18:41:03.366Z,4.50
2018-12-03T18:43:49.520Z,14.07
2018-12-03T18:46:37.970Z,10.23
2018-12-03T18:49:31.134Z,11.20
2018-12-03T18:52:18.907Z,43.17
2018-12-03T18:55:06.706Z,16.53
2018-12-03T18:57:57.446Z,15.97
2018-12-03T19:00:46.098Z,19.90
2018-12-03T19:03:34.518Z,33.43
2018-12-03T19:06:22.933Z,31.70
2018-12-03T19:09:11.653Z,33.10
2018-12-03T19:12:00.137Z,12.10
2018-12-03T19:14:48.554Z,19.63
2018-12-03T19:17:36.977Z,14.77
2018-12-03T19:20:25.397Z,17.13
2018-12-03T19:23:13.836Z,14.30
2018-12-03T19:26:02.896Z,10.43
2018-12-03T19:28:51.922Z,11.63
2018-12-03T19:31:40.346Z,10.90
2018-12-03T19:34:28.758Z,11.60
2018-12-03T19:37:17.205Z,10.40
2018-12-03T19:40:06.242Z,11.43
2018-12-03T19:42:54.690Z,14.47
2018-12-03T19:45:43.225Z,19.37
2018-12-03T19:48:12.599Z,12.40
2018-12-03T19:51:01.032Z,13.23
2018-12-03T19:53:49.770Z,17.47
2018-12-03T19:56:38.223Z,10.17
2018-12-03T19:59:27.854Z,12.90
2018-12-03T20:02:16.304Z,11.57
2018-12-03T20:05:17.594Z,5.50
2018-12-03T20:08:05.371Z,6.43
2018-12-03T20:10:54.298Z,3.70
2018-12-03T20:13:42.707Z,3.10
2018-12-03T20:16:31.135Z,2.27
2018-12-03T20:19:19.562Z,1.80
2018-12-03T20:22:08.591Z,1.83
2018-12-03T20:24:57.012Z,1.80
2018-12-03T20:28:07.406Z,1.27
2018-12-03T20:31:13.859Z,1.33
2018-12-03T20:34:01.626Z,1.80
2018-12-03T20:37:09.062Z,1.63
2018-12-03T20:40:16.524Z,1.10
2018-12-03T20:43:10.408Z,0.70
2018-12-03T20:46:17.868Z,0.93
2018-12-03T20:49:25.279Z,1.17
2018-12-03T20:58:18.273Z,1.00
2018-12-03T21:01:06.674Z,0.50
2018-12-03T21:04:07.419Z,0.90
2018-12-03T21:06:45.556Z,0.60
2018-12-03T21:09:33.331Z,0.60
2018-12-03T21:12:21.126Z,0.60
2018-12-03T21:15:09.551Z,0.60
2018-12-03T21:17:57.973Z,0.50
2018-12-03T21:20:47.433Z,0.50
2018-12-03T21:23:35.866Z,0.73
2018-12-03T21:29:23.423Z,1.33
2018-12-03T21:32:11.825Z,1.13
2018-12-03T21:35:00.227Z,0.70
2018-12-03T21:37:48.654Z,0.73
2018-12-03T21:40:36.413Z,0.70
2018-12-03T21:43:24.182Z,0.53
2018-12-03T21:46:12.596Z,0.80
2018-12-03T21:49:01.018Z,0.70
2018-12-03T21:51:49.504Z,0.50
2018-12-03T21:54:37.902Z,0.50
2018-12-03T21:57:26.304Z,0.90
2018-12-03T22:00:34.744Z,1.83
2018-12-03T22:03:23.234Z,0.93
2018-12-03T22:06:11.683Z,0.50
2018-12-03T22:09:00.094Z,0.50
2018-12-03T22:11:48.163Z,0.40
2018-12-03T22:14:36.561Z,0.53
2018-12-03T22:17:24.961Z,0.50
2018-12-03T22:20:13.400Z,0.60
2018-12-03T22:23:01.826Z,0.60
2018-12-03T22:25:50.269Z,0.50
2018-12-03T22:28:38.662Z,0.50
2018-12-03T22:31:27.103Z,0.50
2018-12-03T22:34:15.522Z,0.50
2018-12-03T22:37:03.939Z,0.50
2018-12-03T22:39:51.714Z,0.70
2018-12-03T22:42:39.511Z,0.73
2018-12-03T22:45:28.134Z,0.73
2018-12-03T22:48:16.530Z,0.57
2018-12-03T22:51:04.930Z,0.50
2018-12-03T22:53:55.452Z,0.50
2018-12-03T22:56:43.862Z,0.60
2018-12-03T22:59:32.276Z,0.50
2018-12-03T23:02:20.731Z,0.57
2018-12-03T23:05:09.141Z,0.60
2018-12-03T23:07:57.608Z,0.67
2018-12-03T23:10:46.056Z,0.50
2018-12-03T23:13:33.825Z,0.70
2018-12-03T23:16:22.234Z,0.60
2018-12-03T23:19:10.648Z,0.57
2018-12-03T23:24:54.580Z,0.40
2018-12-03T23:30:42.393Z,0.53
2018-12-03T23:33:31.062Z,0.50
2018-12-03T23:36:19.469Z,0.60
2018-12-03T23:39:08.094Z,0.60
2018-12-03T23:41:55.862Z,0.53
2018-12-03T23:44:44.259Z,0.50
2018-12-03T23:47:32.659Z,0.50
2018-12-03T23:50:21.095Z,0.50
2018-12-03T23:53:09.753Z,0.80
2018-12-03T23:55:58.197Z,0.60
2018-12-03T23:58:27.549Z,0.60
